EGSS/STN METAR and TAF weather

Enter ICAO airport designator
Station Type Date Time Source
EGSS METAR 2021/05/07 01:20 UTC NOAA

EGSS 070120Z AUTO 28006KT 9999 SCT027 04/02 Q1010


Station Type Date Time Source
EGSS Decoded METAR 2021/05/07 01:20 UTC NOAA

Stansted Airport, United Kingdom (EGSS) 51-53N 000-14E 0M
May 06, 2021 - 09:20 PM EDT / 2021.05.07 0120 UTC
Wind: from the W (280 degrees) at 7 MPH (6 KT):0
Visibility: greater than 7 mile(s):0
Sky conditions: partly cloudy
Temperature: 39 F (4 C)
Dew Point: 35 F (2 C)
Relative Humidity: 86%
Pressure (altimeter): 29.83 in. Hg (1010 hPa)
ob: EGSS 070120Z AUTO 28006KT 9999 SCT027 04/02 Q1010
cycle: 1

Station Type Date Time Source
EGSS TAF 2021/05/06 18:09 UTC NOAA

TAF EGSS 061654Z 0618/0724 30008KT 9999 FEW035 PROB40
TEMPO 0618/0623 8000 -SHRA PROB30
TEMPO 0621/0709 BKN012 PROB30
TEMPO 0710/0713 9000 -SHRA
BECMG 0721/0724 19010KT

Example: see airport list